sensor_id;sensor_type;location;lat;lon;timestamp;temperature;humidity
22418;DHT22;11376;50.932;4.442;2022-10-22T00:01:41;16.50;99.90
22418;DHT22;11376;50.932;4.442;2022-10-22T00:04:06;16.40;99.90
22418;DHT22;11376;50.932;4.442;2022-10-22T00:06:32;16.50;99.90
22418;DHT22;11376;50.932;4.442;2022-10-22T00:08:58;16.40;99.90
22418;DHT22;11376;50.932;4.442;2022-10-22T00:11:23;16.50;99.90
22418;DHT22;11376;50.932;4.442;2022-10-22T00:13:49;16.50;99.90
22418;DHT22;11376;50.932;4.442;2022-10-22T00:16:15;16.50;99.90
22418;DHT22;11376;50.932;4.442;2022-10-22T00:18:40;16.50;99.90
22418;DHT22;11376;50.932;4.442;2022-10-22T00:21:06;16.50;99.90
22418;DHT22;11376;50.932;4.442;2022-10-22T00:23:32;16.60;99.90
22418;DHT22;11376;50.932;4.442;2022-10-22T00:25:58;16.60;99.90
22418;DHT22;11376;50.932;4.442;2022-10-22T00:28:24;16.50;99.90
22418;DHT22;11376;50.932;4.442;2022-10-22T00:31:00;16.60;99.90
22418;DHT22;11376;50.932;4.442;2022-10-22T00:33:26;16.60;99.90
22418;DHT22;11376;50.932;4.442;2022-10-22T00:35:53;16.70;99.90
22418;DHT22;11376;50.932;4.442;2022-10-22T00:38:18;16.70;99.90
22418;DHT22;11376;50.932;4.442;2022-10-22T00:40:45;16.60;99.90
22418;DHT22;11376;50.932;4.442;2022-10-22T00:43:12;16.70;99.90
22418;DHT22;11376;50.932;4.442;2022-10-22T00:45:38;16.70;99.90
22418;DHT22;11376;50.932;4.442;2022-10-22T00:48:08;16.60;99.90
22418;DHT22;11376;50.932;4.442;2022-10-22T00:50:58;16.70;99.90
22418;DHT22;11376;50.932;4.442;2022-10-22T00:53:35;16.60;99.90
22418;DHT22;11376;50.932;4.442;2022-10-22T00:56:01;16.70;99.90
22418;DHT22;11376;50.932;4.442;2022-10-22T00:58:30;16.70;99.90
22418;DHT22;11376;50.932;4.442;2022-10-22T01:00:57;16.60;99.90
22418;DHT22;11376;50.932;4.442;2022-10-22T01:03:23;16.70;99.90
22418;DHT22;11376;50.932;4.442;2022-10-22T01:05:57;16.60;99.90
22418;DHT22;11376;50.932;4.442;2022-10-22T01:11:11;16.60;99.90
22418;DHT22;11376;50.932;4.442;2022-10-22T01:25:36;16.60;99.90
22418;DHT22;11376;50.932;4.442;2022-10-22T01:30:48;16.60;99.90
22418;DHT22;11376;50.932;4.442;2022-10-22T01:33:18;16.50;99.90
22418;DHT22;11376;50.932;4.442;2022-10-22T01:35:44;16.50;99.90
22418;DHT22;11376;50.932;4.442;2022-10-22T01:38:17;16.40;99.90
22418;DHT22;11376;50.932;4.442;2022-10-22T01:40:44;16.40;99.90
22418;DHT22;11376;50.932;4.442;2022-10-22T01:43:10;16.50;99.90
22418;DHT22;11376;50.932;4.442;2022-10-22T01:45:40;16.50;99.90
22418;DHT22;11376;50.932;4.442;2022-10-22T01:53:44;16.50;99.90
22418;DHT22;11376;50.932;4.442;2022-10-22T01:59:28;16.50;99.90
22418;DHT22;11376;50.932;4.442;2022-10-22T02:08:22;16.50;99.90
22418;DHT22;11376;50.932;4.442;2022-10-22T02:10:49;16.50;99.90
22418;DHT22;11376;50.932;4.442;2022-10-22T02:13:18;16.60;99.90
22418;DHT22;11376;50.932;4.442;2022-10-22T02:15:48;16.50;99.90
22418;DHT22;11376;50.932;4.442;2022-10-22T02:18:15;16.50;99.90
22418;DHT22;11376;50.932;4.442;2022-10-22T02:20:43;16.40;99.90
22418;DHT22;11376;50.932;4.442;2022-10-22T02:23:09;16.40;99.90
22418;DHT22;11376;50.932;4.442;2022-10-22T02:25:38;16.40;99.90
22418;DHT22;11376;50.932;4.442;2022-10-22T02:28:12;16.40;99.90
22418;DHT22;11376;50.932;4.442;2022-10-22T02:30:40;16.40;99.90
22418;DHT22;11376;50.932;4.442;2022-10-22T02:33:14;16.40;99.90
22418;DHT22;11376;50.932;4.442;2022-10-22T02:35:41;16.40;99.90
22418;DHT22;11376;50.932;4.442;2022-10-22T02:38:08;16.40;99.90
22418;DHT22;11376;50.932;4.442;2022-10-22T02:40:35;16.40;99.90
22418;DHT22;11376;50.932;4.442;2022-10-22T02:43:03;16.40;99.90
22418;DHT22;11376;50.932;4.442;2022-10-22T02:45:29;16.30;99.90
22418;DHT22;11376;50.932;4.442;2022-10-22T02:47:55;16.40;99.90
22418;DHT22;11376;50.932;4.442;2022-10-22T02:50:20;16.40;99.90
22418;DHT22;11376;50.932;4.442;2022-10-22T02:52:46;16.30;99.90
22418;DHT22;11376;50.932;4.442;2022-10-22T02:55:12;16.30;99.90
22418;DHT22;11376;50.932;4.442;2022-10-22T02:57:37;16.40;99.90
22418;DHT22;11376;50.932;4.442;2022-10-22T03:00:04;16.40;99.90
22418;DHT22;11376;50.932;4.442;2022-10-22T03:02:30;16.30;99.90
22418;DHT22;11376;50.932;4.442;2022-10-22T03:04:57;16.30;99.90
22418;DHT22;11376;50.932;4.442;2022-10-22T03:07:22;16.30;99.90
22418;DHT22;11376;50.932;4.442;2022-10-22T03:09:48;16.40;99.90
22418;DHT22;11376;50.932;4.442;2022-10-22T03:12:13;16.40;99.90
22418;DHT22;11376;50.932;4.442;2022-10-22T03:14:39;16.30;99.90
22418;DHT22;11376;50.932;4.442;2022-10-22T03:17:04;16.30;99.90
22418;DHT22;11376;50.932;4.442;2022-10-22T03:19:30;16.20;99.90
22418;DHT22;11376;50.932;4.442;2022-10-22T03:21:59;16.20;99.90
22418;DHT22;11376;50.932;4.442;2022-10-22T03:24:34;16.20;99.90
22418;DHT22;11376;50.932;4.442;2022-10-22T03:27:00;16.30;99.90
22418;DHT22;11376;50.932;4.442;2022-10-22T03:29:27;16.30;99.90
22418;DHT22;11376;50.932;4.442;2022-10-22T03:31:53;16.20;99.90
22418;DHT22;11376;50.932;4.442;2022-10-22T03:34:19;16.20;99.90
22418;DHT22;11376;50.932;4.442;2022-10-22T03:36:45;16.30;99.90
22418;DHT22;11376;50.932;4.442;2022-10-22T03:39:13;16.30;99.90
22418;DHT22;11376;50.932;4.442;2022-10-22T03:41:41;16.40;99.90
22418;DHT22;11376;50.932;4.442;2022-10-22T03:44:06;16.40;99.90
22418;DHT22;11376;50.932;4.442;2022-10-22T03:46:32;16.40;99.90
22418;DHT22;11376;50.932;4.442;2022-10-22T03:48:58;16.40;99.90
22418;DHT22;11376;50.932;4.442;2022-10-22T03:51:26;16.50;99.90
22418;DHT22;11376;50.932;4.442;2022-10-22T03:53:52;16.40;99.90
22418;DHT22;11376;50.932;4.442;2022-10-22T03:56:17;16.50;99.90
22418;DHT22;11376;50.932;4.442;2022-10-22T03:58:43;16.40;99.90
22418;DHT22;11376;50.932;4.442;2022-10-22T04:01:11;16.50;99.90
22418;DHT22;11376;50.932;4.442;2022-10-22T04:03:37;16.50;99.90
22418;DHT22;11376;50.932;4.442;2022-10-22T04:06:09;16.50;99.90
22418;DHT22;11376;50.932;4.442;2022-10-22T04:08:35;16.50;99.90
22418;DHT22;11376;50.932;4.442;2022-10-22T04:11:01;16.40;99.90
22418;DHT22;11376;50.932;4.442;2022-10-22T04:13:27;16.50;99.90
22418;DHT22;11376;50.932;4.442;2022-10-22T04:15:52;16.50;99.90
22418;DHT22;11376;50.932;4.442;2022-10-22T04:18:19;16.40;99.90
22418;DHT22;11376;50.932;4.442;2022-10-22T04:20:45;16.40;99.90
22418;DHT22;11376;50.932;4.442;2022-10-22T04:23:11;16.40;99.90
22418;DHT22;11376;50.932;4.442;2022-10-22T04:25:37;16.30;99.90
22418;DHT22;11376;50.932;4.442;2022-10-22T04:28:05;16.30;99.90
22418;DHT22;11376;50.932;4.442;2022-10-22T04:30:32;16.20;99.90
22418;DHT22;11376;50.932;4.442;2022-10-22T04:32:57;16.30;99.90
22418;DHT22;11376;50.932;4.442;2022-10-22T04:35:23;16.30;99.90
22418;DHT22;11376;50.932;4.442;2022-10-22T04:37:48;16.40;99.90
22418;DHT22;11376;50.932;4.442;2022-10-22T04:40:14;16.30;99.90
22418;DHT22;11376;50.932;4.442;2022-10-22T04:42:40;16.30;99.90
22418;DHT22;11376;50.932;4.442;2022-10-22T04:45:05;16.20;99.90
22418;DHT22;11376;50.932;4.442;2022-10-22T04:47:31;16.30;99.90
22418;DHT22;11376;50.932;4.442;2022-10-22T04:49:57;16.20;99.90
22418;DHT22;11376;50.932;4.442;2022-10-22T04:52:22;16.20;99.90
22418;DHT22;11376;50.932;4.442;2022-10-22T04:54:48;16.20;99.90
22418;DHT22;11376;50.932;4.442;2022-10-22T04:57:13;16.20;99.90
22418;DHT22;11376;50.932;4.442;2022-10-22T04:59:39;16.20;99.90
22418;DHT22;11376;50.932;4.442;2022-10-22T05:02:04;16.20;99.90
22418;DHT22;11376;50.932;4.442;2022-10-22T05:04:30;16.30;99.90
22418;DHT22;11376;50.932;4.442;2022-10-22T05:06:56;16.20;99.90
22418;DHT22;11376;50.932;4.442;2022-10-22T05:09:22;16.20;99.90
22418;DHT22;11376;50.932;4.442;2022-10-22T05:11:49;16.20;99.90
22418;DHT22;11376;50.932;4.442;2022-10-22T05:14:18;16.20;99.90
22418;DHT22;11376;50.932;4.442;2022-10-22T05:16:44;16.20;99.90
22418;DHT22;11376;50.932;4.442;2022-10-22T05:19:19;16.30;99.90
22418;DHT22;11376;50.932;4.442;2022-10-22T05:21:45;16.30;99.90
22418;DHT22;11376;50.932;4.442;2022-10-22T05:24:11;16.40;99.90
22418;DHT22;11376;50.932;4.442;2022-10-22T05:26:37;16.50;99.90
22418;DHT22;11376;50.932;4.442;2022-10-22T05:29:03;16.50;99.90
22418;DHT22;11376;50.932;4.442;2022-10-22T05:31:28;16.60;99.90
22418;DHT22;11376;50.932;4.442;2022-10-22T05:33:54;16.70;99.90
22418;DHT22;11376;50.932;4.442;2022-10-22T05:36:21;16.70;99.90
22418;DHT22;11376;50.932;4.442;2022-10-22T05:38:47;16.70;99.90
22418;DHT22;11376;50.932;4.442;2022-10-22T05:41:23;16.70;99.90
22418;DHT22;11376;50.932;4.442;2022-10-22T05:43:50;16.80;99.90
22418;DHT22;11376;50.932;4.442;2022-10-22T05:46:18;16.70;99.90
22418;DHT22;11376;50.932;4.442;2022-10-22T05:48:51;16.70;99.90
22418;DHT22;11376;50.932;4.442;2022-10-22T05:51:17;16.70;99.90
22418;DHT22;11376;50.932;4.442;2022-10-22T05:53:44;16.80;99.90
22418;DHT22;11376;50.932;4.442;2022-10-22T05:56:14;16.90;99.90
22418;DHT22;11376;50.932;4.442;2022-10-22T05:58:41;16.90;99.90
22418;DHT22;11376;50.932;4.442;2022-10-22T06:01:11;16.80;99.90
22418;DHT22;11376;50.932;4.442;2022-10-22T06:03:37;16.80;99.90
22418;DHT22;11376;50.932;4.442;2022-10-22T06:09:02;16.70;99.90
22418;DHT22;11376;50.932;4.442;2022-10-22T06:11:28;16.60;99.90
22418;DHT22;11376;50.932;4.442;2022-10-22T06:13:53;16.50;99.90
22418;DHT22;11376;50.932;4.442;2022-10-22T06:16:19;16.50;99.90
22418;DHT22;11376;50.932;4.442;2022-10-22T06:18:44;16.50;99.90
22418;DHT22;11376;50.932;4.442;2022-10-22T06:21:12;16.60;99.90
22418;DHT22;11376;50.932;4.442;2022-10-22T06:23:39;16.60;99.90
22418;DHT22;11376;50.932;4.442;2022-10-22T06:26:06;16.70;99.90
22418;DHT22;11376;50.932;4.442;2022-10-22T06:28:32;16.60;99.90
22418;DHT22;11376;50.932;4.442;2022-10-22T06:30:59;16.60;99.90
22418;DHT22;11376;50.932;4.442;2022-10-22T06:33:27;16.50;99.90
22418;DHT22;11376;50.932;4.442;2022-10-22T06:35:52;16.50;99.90
22418;DHT22;11376;50.932;4.442;2022-10-22T06:38:18;16.50;99.90
22418;DHT22;11376;50.932;4.442;2022-10-22T06:40:44;16.50;99.90
22418;DHT22;11376;50.932;4.442;2022-10-22T06:43:11;16.50;99.90
22418;DHT22;11376;50.932;4.442;2022-10-22T06:45:37;16.60;99.90
22418;DHT22;11376;50.932;4.442;2022-10-22T06:48:03;16.70;99.90
22418;DHT22;11376;50.932;4.442;2022-10-22T06:53:41;16.60;99.90
22418;DHT22;11376;50.932;4.442;2022-10-22T06:56:08;16.60;99.90
22418;DHT22;11376;50.932;4.442;2022-10-22T06:58:34;16.60;99.90
22418;DHT22;11376;50.932;4.442;2022-10-22T07:01:06;16.70;99.90
22418;DHT22;11376;50.932;4.442;2022-10-22T07:03:32;16.70;99.90
22418;DHT22;11376;50.932;4.442;2022-10-22T07:06:02;16.70;99.90
22418;DHT22;11376;50.932;4.442;2022-10-22T07:08:29;16.70;99.90
22418;DHT22;11376;50.932;4.442;2022-10-22T07:10:55;16.70;99.90
22418;DHT22;11376;50.932;4.442;2022-10-22T07:13:23;16.70;99.90
22418;DHT22;11376;50.932;4.442;2022-10-22T07:15:52;16.80;99.90
22418;DHT22;11376;50.932;4.442;2022-10-22T07:18:19;16.90;99.90
22418;DHT22;11376;50.932;4.442;2022-10-22T07:20:46;16.90;99.90
22418;DHT22;11376;50.932;4.442;2022-10-22T07:23:12;17.00;99.90
22418;DHT22;11376;50.932;4.442;2022-10-22T07:25:37;17.00;99.90
22418;DHT22;11376;50.932;4.442;2022-10-22T07:28:03;16.90;99.90
22418;DHT22;11376;50.932;4.442;2022-10-22T07:30:28;16.80;99.90
22418;DHT22;11376;50.932;4.442;2022-10-22T07:32:54;16.80;99.90
22418;DHT22;11376;50.932;4.442;2022-10-22T07:35:19;16.80;99.90
22418;DHT22;11376;50.932;4.442;2022-10-22T07:37:45;16.80;99.90
22418;DHT22;11376;50.932;4.442;2022-10-22T07:40:11;16.70;99.90
22418;DHT22;11376;50.932;4.442;2022-10-22T07:42:36;16.80;99.90
22418;DHT22;11376;50.932;4.442;2022-10-22T07:45:02;16.80;99.90
22418;DHT22;11376;50.932;4.442;2022-10-22T07:47:28;16.90;99.90
22418;DHT22;11376;50.932;4.442;2022-10-22T07:49:53;17.00;99.90
22418;DHT22;11376;50.932;4.442;2022-10-22T07:52:19;17.10;99.90
22418;DHT22;11376;50.932;4.442;2022-10-22T07:54:44;17.10;99.90
22418;DHT22;11376;50.932;4.442;2022-10-22T07:57:10;17.10;99.90
22418;DHT22;11376;50.932;4.442;2022-10-22T07:59:36;17.00;99.90
22418;DHT22;11376;50.932;4.442;2022-10-22T08:02:01;17.20;99.90
22418;DHT22;11376;50.932;4.442;2022-10-22T08:04:27;17.30;99.90
22418;DHT22;11376;50.932;4.442;2022-10-22T08:06:52;17.40;99.90
22418;DHT22;11376;50.932;4.442;2022-10-22T08:09:18;17.70;99.90
22418;DHT22;11376;50.932;4.442;2022-10-22T08:11:43;17.70;99.90
22418;DHT22;11376;50.932;4.442;2022-10-22T08:14:10;17.70;99.90
22418;DHT22;11376;50.932;4.442;2022-10-22T08:16:36;17.70;99.90
22418;DHT22;11376;50.932;4.442;2022-10-22T08:19:02;17.70;99.90
22418;DHT22;11376;50.932;4.442;2022-10-22T08:21:28;17.80;99.90
22418;DHT22;11376;50.932;4.442;2022-10-22T08:23:53;18.00;99.90
22418;DHT22;11376;50.932;4.442;2022-10-22T08:26:19;18.10;99.90
22418;DHT22;11376;50.932;4.442;2022-10-22T08:28:45;18.10;99.90
22418;DHT22;11376;50.932;4.442;2022-10-22T08:31:10;18.00;99.90
22418;DHT22;11376;50.932;4.442;2022-10-22T08:33:37;18.10;99.90
22418;DHT22;11376;50.932;4.442;2022-10-22T08:36:03;18.20;99.90
22418;DHT22;11376;50.932;4.442;2022-10-22T08:38:29;18.20;99.90
22418;DHT22;11376;50.932;4.442;2022-10-22T08:41:12;18.10;99.90
22418;DHT22;11376;50.932;4.442;2022-10-22T08:44:09;18.10;99.90
22418;DHT22;11376;50.932;4.442;2022-10-22T08:49:22;18.20;99.90
22418;DHT22;11376;50.932;4.442;2022-10-22T08:51:49;18.20;99.90
22418;DHT22;11376;50.932;4.442;2022-10-22T08:54:43;18.30;99.90
22418;DHT22;11376;50.932;4.442;2022-10-22T09:00:21;18.40;99.90
22418;DHT22;11376;50.932;4.442;2022-10-22T09:03:04;18.60;99.90
22418;DHT22;11376;50.932;4.442;2022-10-22T09:05:34;18.70;99.90
22418;DHT22;11376;50.932;4.442;2022-10-22T09:08:01;18.70;99.90
22418;DHT22;11376;50.932;4.442;2022-10-22T09:10:34;18.90;99.90
22418;DHT22;11376;50.932;4.442;2022-10-22T09:13:01;18.90;99.90
22418;DHT22;11376;50.932;4.442;2022-10-22T09:15:28;18.90;99.90
22418;DHT22;11376;50.932;4.442;2022-10-22T09:20:48;18.60;99.90
22418;DHT22;11376;50.932;4.442;2022-10-22T09:25:50;18.90;99.90
22418;DHT22;11376;50.932;4.442;2022-10-22T09:28:17;18.80;99.90
22418;DHT22;11376;50.932;4.442;2022-10-22T09:30:42;18.70;99.90
22418;DHT22;11376;50.932;4.442;2022-10-22T09:33:23;18.80;99.90
22418;DHT22;11376;50.932;4.442;2022-10-22T09:35:54;19.00;99.90
22418;DHT22;11376;50.932;4.442;2022-10-22T09:38:28;19.20;99.90
22418;DHT22;11376;50.932;4.442;2022-10-22T09:40:56;19.20;99.90
22418;DHT22;11376;50.932;4.442;2022-10-22T09:43:22;19.30;99.90
22418;DHT22;11376;50.932;4.442;2022-10-22T09:45:55;19.30;99.90
22418;DHT22;11376;50.932;4.442;2022-10-22T09:48:34;19.40;99.90
22418;DHT22;11376;50.932;4.442;2022-10-22T09:53:43;20.10;99.90
22418;DHT22;11376;50.932;4.442;2022-10-22T09:56:35;20.10;99.90
22418;DHT22;11376;50.932;4.442;2022-10-22T09:59:03;20.10;99.90
22418;DHT22;11376;50.932;4.442;2022-10-22T10:01:33;20.40;99.90
22418;DHT22;11376;50.932;4.442;2022-10-22T10:04:16;20.60;99.90
22418;DHT22;11376;50.932;4.442;2022-10-22T10:06:43;20.80;99.90
22418;DHT22;11376;50.932;4.442;2022-10-22T10:09:21;21.50;99.90
22418;DHT22;11376;50.932;4.442;2022-10-22T10:17:31;26.10;99.90
22418;DHT22;11376;50.932;4.442;2022-10-22T10:25:42;26.40;99.90
22418;DHT22;11376;50.932;4.442;2022-10-22T10:28:28;26.30;99.90
22418;DHT22;11376;50.932;4.442;2022-10-22T10:36:24;26.00;99.90
22418;DHT22;11376;50.932;4.442;2022-10-22T10:39:12;26.10;99.90
22418;DHT22;11376;50.932;4.442;2022-10-22T10:41:52;26.30;99.90
22418;DHT22;11376;50.932;4.442;2022-10-22T10:44:40;25.00;99.90
22418;DHT22;11376;50.932;4.442;2022-10-22T10:47:15;24.60;99.90
22418;DHT22;11376;50.932;4.442;2022-10-22T10:49:45;24.90;99.90
22418;DHT22;11376;50.932;4.442;2022-10-22T10:52:20;25.00;99.90
22418;DHT22;11376;50.932;4.442;2022-10-22T10:55:29;24.00;99.90
22418;DHT22;11376;50.932;4.442;2022-10-22T10:58:24;23.00;99.90
22418;DHT22;11376;50.932;4.442;2022-10-22T11:00:56;23.30;99.90
22418;DHT22;11376;50.932;4.442;2022-10-22T11:03:55;23.90;99.90
22418;DHT22;11376;50.932;4.442;2022-10-22T11:06:25;24.80;99.90
22418;DHT22;11376;50.932;4.442;2022-10-22T11:09:02;26.20;99.90
22418;DHT22;11376;50.932;4.442;2022-10-22T11:11:38;27.80;99.90
22418;DHT22;11376;50.932;4.442;2022-10-22T11:14:18;29.20;99.90
22418;DHT22;11376;50.932;4.442;2022-10-22T11:16:54;31.10;99.90
22418;DHT22;11376;50.932;4.442;2022-10-22T11:19:30;32.20;96.90
22418;DHT22;11376;50.932;4.442;2022-10-22T11:22:21;30.90;96.70
22418;DHT22;11376;50.932;4.442;2022-10-22T11:25:20;30.20;97.20
22418;DHT22;11376;50.932;4.442;2022-10-22T11:30:21;28.40;98.60
22418;DHT22;11376;50.932;4.442;2022-10-22T11:32:50;27.30;99.90
22418;DHT22;11376;50.932;4.442;2022-10-22T11:35:21;26.80;99.90
22418;DHT22;11376;50.932;4.442;2022-10-22T11:37:48;28.40;99.90
22418;DHT22;11376;50.932;4.442;2022-10-22T11:40:21;30.90;96.70
22418;DHT22;11376;50.932;4.442;2022-10-22T11:42:53;33.20;93.30
22418;DHT22;11376;50.932;4.442;2022-10-22T11:45:41;35.20;86.50
22418;DHT22;11376;50.932;4.442;2022-10-22T11:50:56;36.20;71.70
22418;DHT22;11376;50.932;4.442;2022-10-22T11:53:34;36.00;69.30
22418;DHT22;11376;50.932;4.442;2022-10-22T11:58:32;34.90;68.70
22418;DHT22;11376;50.932;4.442;2022-10-22T12:06:26;28.20;85.20
22418;DHT22;11376;50.932;4.442;2022-10-22T12:08:57;27.20;91.40
22418;DHT22;11376;50.932;4.442;2022-10-22T12:11:39;26.90;92.90
22418;DHT22;11376;50.932;4.442;2022-10-22T12:14:25;26.70;94.50
22418;DHT22;11376;50.932;4.442;2022-10-22T12:21:56;24.50;99.90
22418;DHT22;11376;50.932;4.442;2022-10-22T12:24:23;25.10;99.90
22418;DHT22;11376;50.932;4.442;2022-10-22T12:26:50;26.40;98.30
22418;DHT22;11376;50.932;4.442;2022-10-22T12:29:17;28.80;94.60
22418;DHT22;11376;50.932;4.442;2022-10-22T12:31:45;30.80;90.90
22418;DHT22;11376;50.932;4.442;2022-10-22T12:34:17;32.00;86.10
22418;DHT22;11376;50.932;4.442;2022-10-22T12:36:43;32.50;81.30
22418;DHT22;11376;50.932;4.442;2022-10-22T12:39:14;33.50;78.90
22418;DHT22;11376;50.932;4.442;2022-10-22T12:41:40;35.30;73.10
22418;DHT22;11376;50.932;4.442;2022-10-22T12:44:09;35.50;68.30
22418;DHT22;11376;50.932;4.442;2022-10-22T12:46:35;33.60;70.60
22418;DHT22;11376;50.932;4.442;2022-10-22T12:49:04;31.80;73.70
22418;DHT22;11376;50.932;4.442;2022-10-22T12:51:31;30.80;76.40
22418;DHT22;11376;50.932;4.442;2022-10-22T12:54:01;30.20;77.80
22418;DHT22;11376;50.932;4.442;2022-10-22T12:56:31;29.80;79.30
22418;DHT22;11376;50.932;4.442;2022-10-22T12:59:00;29.10;81.80
22418;DHT22;11376;50.932;4.442;2022-10-22T13:01:31;29.10;83.00
22418;DHT22;11376;50.932;4.442;2022-10-22T13:12:06;29.00;87.30
22418;DHT22;11376;50.932;4.442;2022-10-22T13:14:33;29.90;83.80
22418;DHT22;11376;50.932;4.442;2022-10-22T13:17:18;29.60;83.30
22418;DHT22;11376;50.932;4.442;2022-10-22T13:24:53;31.50;80.20
22418;DHT22;11376;50.932;4.442;2022-10-22T13:27:21;32.00;76.10
22418;DHT22;11376;50.932;4.442;2022-10-22T13:29:47;32.60;73.80
22418;DHT22;11376;50.932;4.442;2022-10-22T13:32:28;32.90;72.00
22418;DHT22;11376;50.932;4.442;2022-10-22T13:34:56;31.60;73.30
22418;DHT22;11376;50.932;4.442;2022-10-22T13:37:23;31.00;74.20
22418;DHT22;11376;50.932;4.442;2022-10-22T13:39:48;30.80;74.70
22418;DHT22;11376;50.932;4.442;2022-10-22T13:42:14;30.20;76.90
22418;DHT22;11376;50.932;4.442;2022-10-22T13:44:39;29.50;78.60
22418;DHT22;11376;50.932;4.442;2022-10-22T13:47:25;29.50;80.60
22418;DHT22;11376;50.932;4.442;2022-10-22T13:49:52;29.80;79.30
22418;DHT22;11376;50.932;4.442;2022-10-22T13:52:27;29.90;79.50
22418;DHT22;11376;50.932;4.442;2022-10-22T13:54:53;30.80;79.10
22418;DHT22;11376;50.932;4.442;2022-10-22T13:57:19;31.60;75.90
22418;DHT22;11376;50.932;4.442;2022-10-22T13:59:44;31.50;74.20
22418;DHT22;11376;50.932;4.442;2022-10-22T14:02:11;30.90;74.90
22418;DHT22;11376;50.932;4.442;2022-10-22T14:04:39;30.90;75.70
22418;DHT22;11376;50.932;4.442;2022-10-22T14:07:23;31.20;74.90
22418;DHT22;11376;50.932;4.442;2022-10-22T14:09:48;30.90;76.00
22418;DHT22;11376;50.932;4.442;2022-10-22T14:12:16;30.40;77.60
22418;DHT22;11376;50.932;4.442;2022-10-22T14:14:42;30.00;78.40
22418;DHT22;11376;50.932;4.442;2022-10-22T14:17:12;30.50;78.10
22418;DHT22;11376;50.932;4.442;2022-10-22T14:19:44;29.70;79.20
22418;DHT22;11376;50.932;4.442;2022-10-22T14:22:15;28.90;81.30
22418;DHT22;11376;50.932;4.442;2022-10-22T14:24:41;28.70;83.00
22418;DHT22;11376;50.932;4.442;2022-10-22T14:27:10;27.90;85.10
22418;DHT22;11376;50.932;4.442;2022-10-22T14:29:36;28.10;85.90
22418;DHT22;11376;50.932;4.442;2022-10-22T14:32:02;28.20;85.70
22418;DHT22;11376;50.932;4.442;2022-10-22T14:34:27;28.20;85.40
22418;DHT22;11376;50.932;4.442;2022-10-22T14:36:53;28.10;86.30
22418;DHT22;11376;50.932;4.442;2022-10-22T14:39:18;28.30;86.90
22418;DHT22;11376;50.932;4.442;2022-10-22T14:41:46;28.70;86.40
22418;DHT22;11376;50.932;4.442;2022-10-22T14:44:12;28.90;85.20
22418;DHT22;11376;50.932;4.442;2022-10-22T14:46:39;28.60;84.70
22418;DHT22;11376;50.932;4.442;2022-10-22T14:49:06;27.80;85.90
22418;DHT22;11376;50.932;4.442;2022-10-22T14:51:32;27.40;87.50
22418;DHT22;11376;50.932;4.442;2022-10-22T14:53:58;27.00;88.60
22418;DHT22;11376;50.932;4.442;2022-10-22T14:56:23;26.70;90.00
22418;DHT22;11376;50.932;4.442;2022-10-22T14:58:49;26.20;90.70
22418;DHT22;11376;50.932;4.442;2022-10-22T15:01:15;25.70;92.00
22418;DHT22;11376;50.932;4.442;2022-10-22T15:03:40;25.20;93.20
22418;DHT22;11376;50.932;4.442;2022-10-22T15:06:06;24.60;94.60
22418;DHT22;11376;50.932;4.442;2022-10-22T15:08:32;24.30;95.60
22418;DHT22;11376;50.932;4.442;2022-10-22T15:11:07;24.00;96.60
22418;DHT22;11376;50.932;4.442;2022-10-22T15:13:34;23.80;97.80
22418;DHT22;11376;50.932;4.442;2022-10-22T15:16:00;23.40;99.30
22418;DHT22;11376;50.932;4.442;2022-10-22T15:18:26;23.10;99.90
22418;DHT22;11376;50.932;4.442;2022-10-22T15:23:21;22.70;99.90
22418;DHT22;11376;50.932;4.442;2022-10-22T15:25:47;22.50;99.90
22418;DHT22;11376;50.932;4.442;2022-10-22T15:28:13;22.30;99.90
22418;DHT22;11376;50.932;4.442;2022-10-22T15:30:38;22.30;99.90
22418;DHT22;11376;50.932;4.442;2022-10-22T15:33:04;22.10;99.90
22418;DHT22;11376;50.932;4.442;2022-10-22T15:35:30;22.20;99.90
22418;DHT22;11376;50.932;4.442;2022-10-22T15:37:56;22.30;99.90
22418;DHT22;11376;50.932;4.442;2022-10-22T15:40:21;22.30;99.90
22418;DHT22;11376;50.932;4.442;2022-10-22T15:42:47;22.30;99.90
22418;DHT22;11376;50.932;4.442;2022-10-22T15:45:13;22.30;99.90
22418;DHT22;11376;50.932;4.442;2022-10-22T15:47:44;22.10;99.90
22418;DHT22;11376;50.932;4.442;2022-10-22T15:50:09;22.10;99.90
22418;DHT22;11376;50.932;4.442;2022-10-22T15:52:35;22.00;99.90
22418;DHT22;11376;50.932;4.442;2022-10-22T15:55:00;22.00;99.90
22418;DHT22;11376;50.932;4.442;2022-10-22T15:57:31;22.00;99.90
22418;DHT22;11376;50.932;4.442;2022-10-22T15:59:57;21.90;99.90
22418;DHT22;11376;50.932;4.442;2022-10-22T16:02:23;21.80;99.90
22418;DHT22;11376;50.932;4.442;2022-10-22T16:04:48;21.80;99.90
22418;DHT22;11376;50.932;4.442;2022-10-22T16:07:14;21.60;99.90
22418;DHT22;11376;50.932;4.442;2022-10-22T16:09:39;21.50;99.90
22418;DHT22;11376;50.932;4.442;2022-10-22T16:12:05;21.40;99.90
22418;DHT22;11376;50.932;4.442;2022-10-22T16:14:31;21.20;99.90
22418;DHT22;11376;50.932;4.442;2022-10-22T16:16:56;21.10;99.90
22418;DHT22;11376;50.932;4.442;2022-10-22T16:19:24;20.90;99.90
22418;DHT22;11376;50.932;4.442;2022-10-22T16:21:50;20.90;99.90
22418;DHT22;11376;50.932;4.442;2022-10-22T16:24:16;20.90;99.90
22418;DHT22;11376;50.932;4.442;2022-10-22T16:26:42;20.80;99.90
22418;DHT22;11376;50.932;4.442;2022-10-22T16:29:08;20.70;99.90
22418;DHT22;11376;50.932;4.442;2022-10-22T16:31:35;20.60;99.90
22418;DHT22;11376;50.932;4.442;2022-10-22T16:34:01;20.50;99.90
22418;DHT22;11376;50.932;4.442;2022-10-22T16:36:27;20.50;99.90
22418;DHT22;11376;50.932;4.442;2022-10-22T16:38:52;20.30;99.90
22418;DHT22;11376;50.932;4.442;2022-10-22T16:41:20;20.30;99.90
22418;DHT22;11376;50.932;4.442;2022-10-22T16:43:48;20.30;99.90
22418;DHT22;11376;50.932;4.442;2022-10-22T16:46:17;20.20;99.90
22418;DHT22;11376;50.932;4.442;2022-10-22T16:48:47;20.20;99.90
22418;DHT22;11376;50.932;4.442;2022-10-22T16:51:16;20.10;99.90
22418;DHT22;11376;50.932;4.442;2022-10-22T16:53:42;20.00;99.90
22418;DHT22;11376;50.932;4.442;2022-10-22T16:56:09;19.80;99.90
22418;DHT22;11376;50.932;4.442;2022-10-22T16:58:36;19.70;99.90
22418;DHT22;11376;50.932;4.442;2022-10-22T17:01:09;19.60;99.90
22418;DHT22;11376;50.932;4.442;2022-10-22T17:03:35;19.50;99.90
22418;DHT22;11376;50.932;4.442;2022-10-22T17:06:01;19.40;99.90
22418;DHT22;11376;50.932;4.442;2022-10-22T17:08:28;19.30;99.90
22418;DHT22;11376;50.932;4.442;2022-10-22T17:10:54;19.20;99.90
22418;DHT22;11376;50.932;4.442;2022-10-22T17:13:20;19.10;99.90
22418;DHT22;11376;50.932;4.442;2022-10-22T17:15:45;19.00;99.90
22418;DHT22;11376;50.932;4.442;2022-10-22T17:18:11;18.90;99.90
22418;DHT22;11376;50.932;4.442;2022-10-22T17:20:43;18.80;99.90
22418;DHT22;11376;50.932;4.442;2022-10-22T17:23:08;18.70;99.90